Archival Weather

Fukuoka

Fukuoka, Japan (RJFF)

Report from: Tuesday, August 16, 2022 3:00 AM JST
Current time: Sunday, November 27, 2022 4:46 PM JST

Current weather
Weather history
Weather forecast

Temperature30.0°C (86.0°F)
Heat index35.2°C (95.4°F)
Dew point24.0°C (75.2°F)
Winds 9 kts (4.6 m/s, 10.4 mph) South (170°)
Visibility6.2 mi. (10 km)
Clouds Few clouds 3,500 ft. (1,067 m)
Scattered clouds 7,000 ft. (2,134 m)
Altimeter29.68 in.Hg (1005 mB)
Relative humidity70 %
Density altitude2,396 ft. (730 m)
Remarks Fully automated report
No significant changes expected in the next two hours
Flight conditions Visual Meteorological Conditions
Raw dataRJFF 151800Z AUTO 17009KT 9999 FEW035 SCT070 //////TCU 30/24 Q1005 NOSIG
An error has occurred. This application may no longer respond until reloaded. Reload 🗙